EDT,Max TemperatureF,Mean TemperatureF,Min TemperatureF,Max Dew PointF,MeanDew PointF,Min DewpointF,Max Humidity, Mean Humidity, Min Humidity, Max Sea Level PressureIn, Mean Sea Level PressureIn, Min Sea Level PressureIn, Max VisibilityMiles, Mean VisibilityMiles, Min VisibilityMiles, Max Wind SpeedMPH, Mean Wind SpeedMPH, Max Gust SpeedMPH,PrecipitationIn, CloudCover, Events, WindDirDegrees
2013-6-1,88,76,63,68,64,61,96,67,41,30.16,30.10,30.04,10,10,4,10,5,16,0.00,1,,201
2013-6-2,87,76,66,70,65,59,94,68,38,30.07,30.00,29.91,10,10,7,13,6,21,0.05,3,Rain,191
2013-6-3,82,74,67,72,69,66,97,87,62,29.97,29.91,29.84,10,9,1,9,3,,0.89,6,Rain,212
2013-6-4,81,70,60,68,64,60,99,80,52,30.10,30.03,29.95,10,8,1,9,2,,0.00,3,,37
2013-6-5,81,72,63,64,61,56,96,71,43,30.14,30.08,30.02,10,9,3,8,1,,0.00,6,,88
2013-6-6,76,70,64,73,67,61,96,88,70,30.04,29.92,29.84,10,9,4,12,3,18,0.41,7,Rain,140
2013-6-7,74,71,68,71,69,68,98,94,83,29.86,29.69,29.52,10,7,1,17,4,29,3.42,7,Rain,331
2013-6-8,83,74,66,72,68,66,98,85,57,30.10,29.96,29.83,10,8,2,9,2,17,0.05,4,Rain,266
2013-6-9,86,75,64,73,69,64,99,81,53,30.17,30.11,30.07,10,7,0,8,1,,0.00,2,Fog-Rain,143
2013-6-10,84,78,72,74,71,69,95,86,67,30.11,30.01,29.91,10,10,4,14,5,22,0.22,5,Rain,184
2013-6-11,86,77,68,69,65,61,93,69,43,29.97,29.94,29.92,10,10,7,13,6,17,0.00,3,,243
2013-6-12,90,76,63,76,68,62,96,73,46,30.00,29.94,29.87,10,9,2,10,3,,0.00,0,,236
2013-6-13,95,82,70,74,71,66,96,71,38,29.88,29.77,29.63,10,8,2,24,3,24,0.00,0,,222
2013-6-14,81,70,58,66,57,52,94,63,37,30.02,29.88,29.76,10,10,7,16,6,21,0.00,1,,331
2013-6-15,84,70,55,67,59,54,97,71,36,30.14,30.08,30.03,10,9,4,8,2,,0.00,1,,242
2013-6-16,86,72,58,68,62,54,93,68,48,30.14,30.08,30.02,10,10,10,15,3,20,0.00,1,,222
2013-6-17,86,78,70,72,67,64,87,72,54,30.05,30.01,29.94,10,10,10,9,5,,0.00,3,Rain,198
2013-6-18,85,76,67,71,69,66,96,83,55,29.99,29.88,29.77,10,9,1,24,4,28,1.75,6,Rain,207
2013-6-19,81,72,64,69,65,61,97,78,54,30.12,30.00,29.89,10,9,1,9,3,,0.00,2,Rain,27
2013-6-20,82,72,62,65,61,56,98,72,42,30.24,30.20,30.13,10,8,0,8,3,,0.00,1,Fog,41
2013-6-21,83,68,54,65,57,50,96,68,34,30.26,30.23,30.18,10,10,7,10,2,,0.00,0,,25
2013-6-22,79,72,65,71,68,63,96,86,70,30.21,30.18,30.12,10,10,2,9,4,,0.04,5,Rain,22
2013-6-23,84,76,67,73,70,66,98,85,60,30.22,30.18,30.14,10,8,0,7,1,,0.00,4,Fog-Rain,178
2013-6-24,85,77,69,74,71,68,97,82,63,30.22,30.17,30.11,10,10,2,10,2,,0.02,3,Rain,211
2013-6-25,88,77,66,72,69,66,98,83,52,30.15,30.09,30.02,10,9,4,13,2,18,0.00,1,Rain,227
2013-6-26,88,78,67,74,70,66,97,83,57,30.05,29.99,29.91,10,9,1,18,3,24,0.55,2,Rain,214
2013-6-27,89,78,67,74,71,66,97,81,57,29.95,29.83,29.73,10,9,2,13,4,18,0.00,3,,211
2013-6-28,90,80,71,75,71,68,96,78,49,29.76,29.69,29.59,10,9,1,15,3,29,0.66,3,Rain,230
2013-6-29,86,77,68,74,71,67,98,84,59,29.73,29.67,29.63,10,8,1,9,2,,0.39,3,Rain,202
2013-6-30,85,77,69,73,71,67,97,87,63,29.88,29.80,29.72,10,9,0,14,2,20,1.23,6,Rain,168